Time;durP1;ratioP1;P1;durP2;ratioP2;P2;SDS_P1;SDS_P2;PMS_P1;PMS_P2;Temp;Humidity;BMP_temperature;BMP_pressure;BME280_temperature;BME280_humidity;BME280_pressure;Samples;Min_cycle;Max_cycle;Signal;HPM_P1;HPM_P2
2021/03/12 00:01:24;;;;;;;11.38;4.12;;;;;;;23.82;36.33;98973.41;4483448;32;33734;-44
2021/03/12 00:03:51;;;;;;;16.92;4.85;;;;;;;23.81;36.49;98979.13;4484901;32;33382;-45
2021/03/12 00:06:18;;;;;;;17.80;4.85;;;;;;;23.80;36.35;98985.66;4484985;32;33870;-49
2021/03/12 00:08:46;;;;;;;11.25;4.25;;;;;;;23.79;36.40;98984.00;4483646;32;34995;-47
2021/03/12 00:11:13;;;;;;;12.10;4.68;;;;;;;23.77;36.35;98994.31;4484782;32;34500;-50
2021/03/12 00:13:42;;;;;;;14.32;4.60;;;;;;;23.76;36.30;99004.38;4485043;32;33223;-50
2021/03/12 00:16:09;;;;;;;13.48;4.62;;;;;;;23.75;36.27;99013.62;4484774;32;33855;-47
2021/03/12 00:18:42;;;;;;;18.27;4.65;;;;;;;23.73;36.30;99013.03;4484705;32;33857;-45
2021/03/12 00:21:09;;;;;;;11.40;4.50;;;;;;;23.71;36.41;99020.63;4483529;31;34080;-47
2021/03/12 00:23:38;;;;;;;11.55;4.22;;;;;;;23.71;36.35;99039.72;4484911;32;33461;-44
2021/03/12 00:26:06;;;;;;;12.15;4.45;;;;;;;23.72;36.42;99045.97;4485019;32;33714;-46
2021/03/12 00:28:35;;;;;;;10.95;3.55;;;;;;;23.69;36.43;99047.31;4485015;32;33779;-48
2021/03/12 00:31:04;;;;;;;12.32;4.53;;;;;;;23.70;36.35;99054.41;4484807;32;34310;-46
2021/03/12 00:33:31;;;;;;;12.25;4.50;;;;;;;23.68;36.46;99061.97;4485090;32;33350;-47
2021/03/12 00:35:59;;;;;;;10.15;4.32;;;;;;;23.68;36.43;99067.44;4485062;32;33907;-44
2021/03/12 00:38:28;;;;;;;10.40;4.03;;;;;;;23.67;36.41;99058.44;4483390;32;33846;-49
2021/03/12 00:40:57;;;;;;;14.60;4.05;;;;;;;23.64;36.34;99058.09;4484996;32;34525;-45
2021/03/12 00:43:24;;;;;;;12.30;3.93;;;;;;;23.63;36.37;99059.97;4484948;32;33267;-45
2021/03/12 00:45:57;;;;;;;10.70;4.07;;;;;;;23.64;36.45;99066.25;4484682;32;33863;-45
2021/03/12 00:48:24;;;;;;;10.48;4.28;;;;;;;23.63;36.36;99067.31;4484768;32;33780;-46
2021/03/12 00:51:00;;;;;;;9.65;3.90;;;;;;;23.61;36.31;99070.28;4484981;32;33838;-52
2021/03/12 00:53:28;;;;;;;11.65;3.62;;;;;;;23.61;36.43;99064.00;4485109;32;34059;-44
2021/03/12 00:55:56;;;;;;;12.15;4.00;;;;;;;23.59;36.41;99063.41;4484815;32;33855;-45
2021/03/12 00:58:23;;;;;;;13.02;4.10;;;;;;;23.57;36.43;99058.22;4484974;32;33818;-44
2021/03/12 01:00:52;;;;;;;10.85;4.18;;;;;;;23.56;36.51;99056.59;4484797;32;34825;-45
2021/03/12 01:03:20;;;;;;;12.32;4.18;;;;;;;23.57;36.46;99057.41;4484896;32;33541;-46
2021/03/12 01:05:51;;;;;;;9.32;3.75;;;;;;;23.56;36.54;99045.69;4484385;32;33916;-46
2021/03/12 01:08:18;;;;;;;12.82;4.93;;;;;;;23.56;36.65;99042.16;4484863;32;34802;-44
2021/03/12 01:10:46;;;;;;;7.00;3.40;;;;;;;23.55;36.66;99035.03;4484514;32;33999;-44
2021/03/12 01:13:13;;;;;;;9.88;4.68;;;;;;;23.54;36.56;99044.28;4484017;32;34389;-46
2021/03/12 01:15:41;;;;;;;11.60;4.20;;;;;;;23.53;36.81;99035.28;4484556;32;33836;-44
2021/03/12 01:18:10;;;;;;;8.63;3.87;;;;;;;23.52;36.73;99032.81;4484406;32;33927;-50
2021/03/12 01:20:38;;;;;;;9.02;4.15;;;;;;;23.51;36.80;99031.16;4484381;32;33442;-44
2021/03/12 01:23:06;;;;;;;9.88;4.15;;;;;;;23.50;36.84;99024.91;4484570;32;33314;-44
2021/03/12 01:25:41;;;;;;;8.23;3.90;;;;;;;23.49;36.77;99027.84;4484679;32;33795;-44
2021/03/12 01:28:09;;;;;;;7.87;3.70;;;;;;;23.48;36.74;99028.91;4484066;32;33996;-47
2021/03/12 01:30:45;;;;;;;11.15;4.18;;;;;;;23.48;36.74;99031.66;4484465;32;33729;-48
2021/03/12 01:33:14;;;;;;;11.55;3.90;;;;;;;23.46;36.64;99023.72;4484538;31;31723;-46
2021/03/12 01:35:42;;;;;;;16.55;4.35;;;;;;;23.45;36.80;99043.84;4484526;32;34555;-46
2021/03/12 01:38:09;;;;;;;11.12;3.95;;;;;;;23.45;36.85;99051.19;4484465;32;34063;-52
2021/03/12 01:40:39;;;;;;;11.32;3.85;;;;;;;23.42;36.79;99028.84;4484500;32;34541;-45
2021/03/12 01:43:06;;;;;;;7.85;3.58;;;;;;;23.41;36.85;99029.09;4484561;32;33333;-45
2021/03/12 01:45:36;;;;;;;8.65;3.35;;;;;;;23.42;36.73;99036.19;4484420;32;33881;-48
2021/03/12 01:48:11;;;;;;;14.02;4.45;;;;;;;23.41;36.97;99038.06;4484255;32;33788;-46
2021/03/12 01:50:39;;;;;;;12.23;3.78;;;;;;;23.40;37.11;99020.06;4483370;32;33945;-51
2021/03/12 01:53:10;;;;;;;8.20;3.50;;;;;;;23.42;37.06;99011.69;4484579;32;33282;-44
2021/03/12 01:55:37;;;;;;;11.52;3.90;;;;;;;23.40;37.02;99019.25;4483957;32;33856;-50
2021/03/12 01:58:05;;;;;;;7.60;3.58;;;;;;;23.39;37.08;99018.44;4484166;32;34600;-45
2021/03/12 02:00:33;;;;;;;11.12;3.83;;;;;;;23.39;37.01;99023.03;4484182;32;34523;-47
2021/03/12 02:03:06;;;;;;;7.93;4.18;;;;;;;23.37;37.04;99023.31;4484525;32;34102;-45
2021/03/12 02:05:37;;;;;;;11.70;3.92;;;;;;;23.37;37.05;99028.75;4484349;32;33442;-44
2021/03/12 02:08:04;;;;;;;8.02;3.85;;;;;;;23.35;37.03;98994.66;4484260;32;33551;-51
2021/03/12 02:10:31;;;;;;;9.30;3.80;;;;;;;23.36;37.14;99016.22;4481458;32;92613;-45
2021/03/12 02:13:24;;;;;;;10.35;3.75;;;;;;;23.34;36.94;99002.00;4483011;32;33966;-44
2021/03/12 02:16:13;;;;;;;11.93;4.07;;;;;;;23.34;37.06;98993.84;4484385;32;34614;-48
2021/03/12 02:18:52;;;;;;;11.02;3.72;;;;;;;23.37;37.16;99014.31;4484188;32;33940;-45
2021/03/12 02:21:32;;;;;;;8.77;4.00;;;;;;;23.34;37.21;98982.13;4481695;31;33857;-51
2021/03/12 02:24:02;;;;;;;8.05;3.92;;;;;;;23.33;37.15;98985.94;4482711;32;32999;-51
2021/03/12 02:26:41;;;;;;;8.55;4.68;;;;;;;23.32;37.10;98981.56;4482886;32;34461;-50
2021/03/12 02:29:12;;;;;;;9.18;3.83;;;;;;;23.32;37.07;98973.41;4483843;32;35026;-51
2021/03/12 02:31:40;;;;;;;7.12;3.83;;;;;;;23.28;37.13;98970.31;4482663;32;33875;-47
2021/03/12 02:34:09;;;;;;;6.70;3.20;;;;;;;23.27;37.11;98976.84;4483109;32;33011;-46
2021/03/12 02:36:38;;;;;;;8.30;3.40;;;;;;;23.27;37.06;98967.84;4482943;32;33558;-48
2021/03/12 02:39:09;;;;;;;13.07;4.20;;;;;;;23.26;36.93;98969.72;4483882;31;33184;-45
2021/03/12 02:41:37;;;;;;;7.55;3.22;;;;;;;23.27;36.92;98973.28;4482641;32;34581;-46
2021/03/12 02:44:06;;;;;;;12.20;3.95;;;;;;;23.27;36.99;98971.41;4469949;32;33909;-46
2021/03/12 02:46:34;;;;;;;6.55;3.35;;;;;;;23.27;37.13;98967.84;4482705;32;34851;-46
2021/03/12 02:49:02;;;;;;;9.25;3.80;;;;;;;23.26;37.04;98958.03;4469934;32;34713;-47
2021/03/12 02:51:29;;;;;;;10.68;4.32;;;;;;;23.24;36.97;98961.00;4482757;32;34430;-49
2021/03/12 02:54:05;;;;;;;7.43;3.65;;;;;;;23.25;37.04;98937.31;4463666;32;33738;-46
2021/03/12 02:56:32;;;;;;;7.97;3.55;;;;;;;23.23;37.06;98943.03;4482668;32;33674;-45
2021/03/12 02:59:10;;;;;;;9.18;3.78;;;;;;;23.24;36.99;98943.84;4484063;32;33879;-45
2021/03/12 03:01:40;;;;;;;8.00;3.62;;;;;;;23.23;37.10;98939.47;4469836;32;33786;-49
2021/03/12 03:04:08;;;;;;;7.85;3.50;;;;;;;23.22;37.08;98941.34;4469693;32;33281;-48
2021/03/12 03:06:35;;;;;;;10.25;3.17;;;;;;;23.21;37.07;98945.16;4482352;32;33830;-51
2021/03/12 03:09:03;;;;;;;12.70;3.20;;;;;;;23.20;36.92;98937.25;4456475;32;33585;-46
2021/03/12 03:11:33;;;;;;;7.87;3.45;;;;;;;23.21;36.98;98936.16;4483904;32;33831;-47
2021/03/12 03:14:00;;;;;;;6.32;3.35;;;;;;;23.18;37.02;98926.63;4483724;32;33254;-48
2021/03/12 03:16:30;;;;;;;8.65;3.15;;;;;;;23.20;36.88;98926.34;4458345;32;34322;-52
2021/03/12 03:19:20;;;;;;;8.55;3.50;;;;;;;23.19;37.00;98936.41;4482386;32;33939;-47
2021/03/12 03:21:47;;;;;;;6.97;3.40;;;;;;;23.21;36.95;98944.31;4483489;32;33478;-47
2021/03/12 03:24:15;;;;;;;10.63;3.83;;;;;;;23.19;37.08;98946.47;4482739;32;33417;-49
2021/03/12 03:26:42;;;;;;;9.02;3.37;;;;;;;23.17;37.10;98953.00;4482481;32;34726;-46
2021/03/12 03:29:10;;;;;;;9.82;3.75;;;;;;;23.14;37.08;98960.81;4483449;32;34702;-48
2021/03/12 03:31:37;;;;;;;7.90;3.53;;;;;;;23.15;37.12;98974.19;4483710;32;34491;-44
2021/03/12 03:34:05;;;;;;;9.70;3.65;;;;;;;23.14;37.13;99001.66;4482098;32;32713;-49
2021/03/12 03:36:32;;;;;;;7.07;3.62;;;;;;;23.13;37.12;98991.84;4484888;32;33602;-55
2021/03/12 03:39:00;;;;;;;14.73;3.40;;;;;;;23.12;37.08;98980.09;4485356;32;33830;-48
2021/03/12 03:41:27;;;;;;;10.10;3.33;;;;;;;23.12;37.26;99007.31;4485168;32;33753;-46
2021/03/12 03:43:59;;;;;;;7.15;3.00;;;;;;;23.12;37.22;98996.44;4485219;32;34835;-48
2021/03/12 03:46:28;;;;;;;10.80;3.97;;;;;;;23.13;37.08;99005.44;4470888;32;33838;-46
2021/03/12 03:48:55;;;;;;;7.85;3.40;;;;;;;23.11;37.24;99022.00;4484001;32;34685;-44
2021/03/12 03:51:24;;;;;;;12.50;4.18;;;;;;;23.12;37.24;99020.09;4471567;32;33477;-44
2021/03/12 03:53:52;;;;;;;7.55;3.10;;;;;;;23.12;37.27;99028.25;4471368;32;34379;-45
2021/03/12 03:56:19;;;;;;;8.10;3.15;;;;;;;23.09;37.31;99029.59;4485094;32;33803;-44
2021/03/12 03:58:47;;;;;;;8.15;3.53;;;;;;;23.08;37.38;99046.97;4471019;32;33277;-46
2021/03/12 04:01:15;;;;;;;7.85;3.33;;;;;;;23.08;37.42;99038.81;4485273;32;34785;-54
2021/03/12 04:03:44;;;;;;;7.22;3.17;;;;;;;23.08;37.40;99025.22;4471213;32;32962;-49
2021/03/12 04:06:11;;;;;;;11.63;3.90;;;;;;;23.09;37.05;99035.03;4470989;32;34374;-50
2021/03/12 04:08:39;;;;;;;13.02;3.65;;;;;;;23.08;37.17;99025.22;4485258;32;33338;-51
2021/03/12 04:11:06;;;;;;;11.57;4.15;;;;;;;23.08;37.31;99032.53;4483276;32;33732;-45
2021/03/12 04:13:33;;;;;;;8.52;3.90;;;;;;;23.07;37.33;99031.72;4483864;32;34194;-44
2021/03/12 04:16:00;;;;;;;9.77;3.33;;;;;;;23.08;37.28;99016.19;4483851;32;33843;-48
2021/03/12 04:18:29;;;;;;;7.70;3.58;;;;;;;23.06;37.31;99016.44;4470732;32;33724;-45
2021/03/12 04:20:57;;;;;;;11.73;3.70;;;;;;;23.06;37.36;99021.06;4471010;32;33629;-45
2021/03/12 04:23:25;;;;;;;11.02;3.70;;;;;;;23.04;37.23;99021.31;4471105;32;33424;-53
2021/03/12 04:25:52;;;;;;;9.02;3.30;;;;;;;23.05;37.26;99017.53;4483700;32;33747;-44
2021/03/12 04:28:20;;;;;;;10.57;3.50;;;;;;;23.04;37.24;99002.28;4483714;32;33881;-46
2021/03/12 04:30:47;;;;;;;13.07;3.40;;;;;;;23.04;37.33;99015.06;4483856;32;33935;-47
2021/03/12 04:33:16;;;;;;;10.45;3.28;;;;;;;23.03;37.41;99022.38;4483712;32;34313;-45
2021/03/12 04:35:45;;;;;;;8.90;3.25;;;;;;;23.02;37.31;99020.72;4483805;32;32752;-46
2021/03/12 04:38:13;;;;;;;9.32;3.12;;;;;;;23.04;37.25;99025.94;4471115;32;34691;-46
2021/03/12 04:40:40;;;;;;;9.90;3.42;;;;;;;23.02;37.14;99030.78;4470483;32;33793;-45
2021/03/12 04:43:08;;;;;;;7.12;3.00;;;;;;;23.01;37.18;99027.25;4483585;32;33273;-47
2021/03/12 04:45:36;;;;;;;7.87;3.00;;;;;;;23.02;37.25;99023.44;4483709;32;33778;-45
2021/03/12 04:48:04;;;;;;;11.27;3.35;;;;;;;23.00;37.20;99025.59;4482957;32;33842;-45
2021/03/12 04:50:31;;;;;;;8.32;3.12;;;;;;;23.01;37.26;99027.25;4470582;32;34431;-51
2021/03/12 04:52:58;;;;;;;9.07;3.40;;;;;;;23.00;37.29;99013.88;4483842;32;33260;-46
2021/03/12 04:55:27;;;;;;;6.45;3.15;;;;;;;23.00;37.28;99014.72;4484687;32;32418;-47
2021/03/12 04:57:54;;;;;;;8.40;3.45;;;;;;;23.00;37.39;99024.78;4470842;32;33840;-51
2021/03/12 05:00:22;;;;;;;12.10;3.37;;;;;;;22.99;37.25;99021.22;4483787;32;34362;-46
2021/03/12 05:02:49;;;;;;;10.82;3.28;;;;;;;22.99;37.15;99023.09;4484629;32;33179;-47
2021/03/12 05:05:18;;;;;;;13.40;3.30;;;;;;;22.99;37.22;99015.78;4483284;32;33734;-45
2021/03/12 05:07:45;;;;;;;6.93;2.92;;;;;;;22.99;37.25;99025.81;4470266;32;34548;-48
2021/03/12 05:10:13;;;;;;;7.90;2.90;;;;;;;22.98;37.28;99018.72;4483486;32;33669;-44
2021/03/12 05:12:40;;;;;;;10.30;3.20;;;;;;;22.97;37.18;99012.47;4483514;32;33245;-44
2021/03/12 05:15:25;;;;;;;6.90;2.83;;;;;;;22.97;37.30;99015.19;4484679;32;33752;-50
2021/03/12 05:17:52;;;;;;;10.48;3.60;;;;;;;22.96;37.30;99002.66;4484341;32;34559;-47
2021/03/12 05:20:20;;;;;;;11.90;3.30;;;;;;;22.95;37.20;99011.06;4484395;31;34184;-52
2021/03/12 05:22:47;;;;;;;9.18;3.45;;;;;;;22.95;37.32;99020.06;4484695;32;33556;-44
2021/03/12 05:25:15;;;;;;;7.35;3.20;;;;;;;22.94;37.18;99026.53;4484560;32;33511;-44
2021/03/12 05:27:43;;;;;;;6.87;2.80;;;;;;;22.95;37.29;99025.50;4484657;32;34764;-46
2021/03/12 05:30:10;;;;;;;6.43;3.40;;;;;;;22.95;37.14;99036.38;4484580;32;34501;-45
2021/03/12 05:32:40;;;;;;;13.00;3.53;;;;;;;22.95;37.25;99035.56;4484495;32;33330;-49
2021/03/12 05:35:08;;;;;;;13.85;3.80;;;;;;;22.94;37.37;99039.31;4484446;32;34470;-45
2021/03/12 05:37:35;;;;;;;6.90;2.85;;;;;;;22.95;37.35;99046.44;4484106;32;33879;-53
2021/03/12 05:40:06;;;;;;;14.30;3.33;;;;;;;22.93;37.42;99043.94;4484432;32;34026;-50
2021/03/12 05:42:34;;;;;;;9.82;3.05;;;;;;;22.95;37.45;99062.75;4484684;32;33147;-53
2021/03/12 05:45:01;;;;;;;10.00;3.22;;;;;;;22.92;37.33;99056.72;4483310;32;33766;-52
2021/03/12 05:47:30;;;;;;;6.80;3.22;;;;;;;22.93;37.32;99054.81;4483148;32;33877;-45
2021/03/12 05:49:58;;;;;;;7.05;3.45;;;;;;;22.93;37.40;99052.09;4483303;32;33828;-45
2021/03/12 05:52:26;;;;;;;10.30;3.00;;;;;;;22.91;37.44;99074.13;4483351;32;33222;-47
2021/03/12 05:54:53;;;;;;;9.10;3.03;;;;;;;22.89;37.33;99078.94;4483205;32;33746;-49
2021/03/12 05:57:22;;;;;;;9.45;3.25;;;;;;;22.91;37.44;99095.06;4484437;32;34906;-44
2021/03/12 05:59:51;;;;;;;12.18;3.40;;;;;;;22.89;37.24;99106.16;4483047;32;33707;-44
2021/03/12 06:02:18;;;;;;;11.43;3.15;;;;;;;22.91;37.24;99103.22;4484046;32;34113;-44
2021/03/12 06:04:46;;;;;;;11.57;3.40;;;;;;;22.89;37.14;99111.59;4484338;32;34419;-48
2021/03/12 06:07:15;;;;;;;8.20;3.30;;;;;;;22.90;37.32;99113.28;4484164;32;34816;-44
2021/03/12 06:09:43;;;;;;;7.12;2.97;;;;;;;22.88;37.34;99109.91;4484440;32;34615;-51
2021/03/12 06:12:11;;;;;;;7.50;2.87;;;;;;;22.88;37.33;99109.91;4483753;32;33211;-44
2021/03/12 06:14:59;;;;;;;9.27;3.17;;;;;;;22.88;37.27;99114.53;4484028;32;34521;-50
2021/03/12 06:17:39;;;;;;;10.88;3.55;;;;;;;22.89;37.29;99121.66;4483933;32;33582;-45
2021/03/12 06:20:17;;;;;;;6.28;2.80;;;;;;;22.87;37.23;99140.09;4484136;31;32531;-45
2021/03/12 06:22:55;;;;;;;8.98;3.37;;;;;;;22.86;37.26;99160.19;4484212;32;34826;-40
2021/03/12 06:25:23;;;;;;;10.73;3.65;;;;;;;22.85;37.28;99155.84;4484464;32;33700;-50
2021/03/12 06:27:56;;;;;;;6.55;3.15;;;;;;;22.84;36.81;99156.88;4484189;32;33526;-53
2021/03/12 06:30:24;;;;;;;12.07;3.35;;;;;;;22.84;36.99;99157.69;4484311;32;34458;-45
2021/03/12 06:32:54;;;;;;;14.70;3.72;;;;;;;22.83;37.05;99150.59;4484223;31;33819;-45
2021/03/12 06:35:26;;;;;;;9.10;3.47;;;;;;;22.85;37.03;99158.56;4484030;32;34584;-47
2021/03/12 06:37:55;;;;;;;9.10;3.30;;;;;;;22.83;36.89;99160.66;4484335;32;34067;-47
2021/03/12 06:40:23;;;;;;;12.45;4.18;;;;;;;22.83;36.95;99168.81;4469986;32;34499;-48
2021/03/12 06:43:05;;;;;;;11.57;3.05;;;;;;;22.82;36.96;99178.06;4483815;32;34105;-45
2021/03/12 06:45:33;;;;;;;;;;;;;;;22.83;37.01;99179.72;4483841;32;33938;-45
2021/03/12 06:48:20;;;;;;;7.75;3.08;;;;;;;22.92;36.76;99181.03;4481472;32;35309;-49
2021/03/12 06:50:50;;;;;;;8.50;3.15;;;;;;;22.85;36.87;99192.03;4484228;32;34425;-45
2021/03/12 06:53:35;;;;;;;7.20;3.00;;;;;;;22.81;36.96;99195.44;4483023;32;34142;-45
2021/03/12 06:56:07;;;;;;;10.50;3.35;;;;;;;22.80;36.92;99199.22;4484028;32;33747;-46
2021/03/12 06:58:34;;;;;;;7.80;2.78;;;;;;;22.79;36.95;99214.69;4483593;32;33976;-54
2021/03/12 07:01:02;;;;;;;10.55;3.10;;;;;;;22.79;36.90;99213.88;4483853;32;33958;-45
2021/03/12 07:03:31;;;;;;;10.82;3.15;;;;;;;22.78;37.00;99210.34;4482724;32;33497;-47
2021/03/12 07:06:16;;;;;;;11.02;3.15;;;;;;;22.79;37.01;99203.81;4483808;32;33430;-45
2021/03/12 07:08:48;;;;;;;6.72;2.65;;;;;;;22.78;36.90;99202.19;4483845;32;35396;-45
2021/03/12 07:11:27;;;;;;;10.38;3.10;;;;;;;22.77;36.89;99188.81;4481594;32;34837;-47
2021/03/12 07:13:57;;;;;;;10.70;3.42;;;;;;;22.79;36.98;99192.13;4481855;32;33422;-44
2021/03/12 07:16:29;;;;;;;12.43;3.42;;;;;;;22.78;36.91;99191.28;4470912;31;34638;-57
2021/03/12 07:18:59;;;;;;;10.10;3.30;;;;;;;22.80;36.86;99186.47;4485635;31;33604;-46
2021/03/12 07:21:28;;;;;;;8.13;3.25;;;;;;;22.81;37.12;99184.56;4483528;31;34559;-44
2021/03/12 07:23:57;;;;;;;10.70;3.22;;;;;;;22.82;37.15;99189.75;4483261;32;33898;-46
2021/03/12 07:26:27;;;;;;;9.13;3.47;;;;;;;22.83;37.09;99182.44;4482035;32;34341;-45
2021/03/12 07:29:00;;;;;;;9.15;2.90;;;;;;;22.83;37.15;99191.41;4469477;32;33881;-50
2021/03/12 07:31:37;;;;;;;7.20;3.17;;;;;;;22.85;37.15;99185.75;4483408;32;33786;-53
2021/03/12 07:34:10;;;;;;;8.70;3.20;;;;;;;22.85;37.20;99181.12;4483456;32;33141;-61
2021/03/12 07:36:49;;;;;;;5.82;2.97;;;;;;;22.85;37.16;99189.31;4483691;32;34398;-50
2021/03/12 07:39:22;;;;;;;8.88;3.15;;;;;;;22.84;37.21;99201.22;4483585;32;33841;-53
2021/03/12 07:41:52;;;;;;;8.23;2.95;;;;;;;22.85;37.02;99212.97;4483495;32;33799;-45
2021/03/12 07:44:36;;;;;;;10.20;3.25;;;;;;;22.85;36.87;99216.50;4482486;32;33439;-45
2021/03/12 07:47:26;;;;;;;7.05;2.70;;;;;;;22.85;36.85;99240.16;4471528;32;32553;-62
2021/03/12 07:49:54;;;;;;;7.05;2.95;;;;;;;22.84;36.87;99242.03;4478205;32;33954;-52
2021/03/12 07:52:51;;;;;;;9.57;3.37;;;;;;;22.83;36.98;99251.25;4494303;31;33659;-55
2021/03/12 07:55:38;;;;;;;8.73;3.00;;;;;;;22.84;36.84;99261.06;4482726;32;33451;-48
2021/03/12 07:58:08;;;;;;;7.20;2.92;;;;;;;22.85;36.95;99261.91;4483276;32;33796;-56
2021/03/12 08:00:52;;;;;;;9.43;2.60;;;;;;;22.83;36.96;99253.16;4482690;31;33175;-50
2021/03/12 08:03:30;;;;;;;9.55;3.40;;;;;;;22.86;36.89;99260.84;4482873;32;33804;-54
2021/03/12 08:05:57;;;;;;;8.20;3.37;;;;;;;22.84;36.99;99261.06;4482949;32;33274;-52
2021/03/12 08:08:33;;;;;;;10.48;3.00;;;;;;;22.82;37.06;99271.38;4482819;32;34562;-45
2021/03/12 08:11:36;;;;;;;7.65;3.50;;;;;;;22.84;37.05;99276.56;4482748;32;34607;-44
2021/03/12 08:14:08;;;;;;;12.88;3.55;;;;;;;22.88;36.91;99281.28;4405093;32;33982;-48
2021/03/12 08:16:58;;;;;;;17.40;4.22;;;;;;;22.81;36.51;99285.22;4465378;32;33067;-52
2021/03/12 08:19:34;;;;;;;19.20;4.57;;;;;;;22.66;34.79;99288.34;4481343;32;33741;-53
2021/03/12 08:22:28;;;;;;;17.00;4.30;;;;;;;22.67;34.91;99293.59;4486307;31;34515;-46
2021/03/12 08:24:57;;;;;;;17.45;4.37;;;;;;;22.67;35.17;99292.75;4484881;32;33993;-57
2021/03/12 08:27:42;;;;;;;;;;;;;;;22.64;35.34;99296.75;4485086;32;33396;-49
2021/03/12 08:30:34;;;;;;;12.50;3.67;;;;;;;22.73;35.33;99308.13;4484809;32;34553;-47
2021/03/12 08:33:06;;;;;;;14.43;3.70;;;;;;;22.65;35.61;99292.97;4484704;32;33782;-47
2021/03/12 08:35:41;;;;;;;16.25;4.28;;;;;;;22.64;35.69;99299.47;4484722;32;33888;-56
2021/03/12 08:38:26;;;;;;;10.82;4.18;;;;;;;22.64;35.83;99301.38;4483462;32;32140;-47
2021/03/12 08:41:12;;;;;;;19.33;4.22;;;;;;;22.65;35.81;99295.69;4484829;32;35257;-50
2021/03/12 08:43:48;;;;;;;13.75;3.90;;;;;;;22.69;35.83;99301.50;4484454;32;33919;-50
2021/03/12 08:46:23;;;;;;;15.57;3.83;;;;;;;22.67;35.93;99304.47;4484920;32;34090;-65
2021/03/12 08:48:56;;;;;;;19.52;3.90;;;;;;;22.70;35.95;99289.53;4483692;32;33528;-65
2021/03/12 08:51:25;;;;;;;19.50;4.18;;;;;;;22.70;36.06;99294.16;4485096;32;33771;-67
2021/03/12 08:53:56;;;;;;;12.95;3.83;;;;;;;22.67;36.07;99301.75;4480972;32;33566;-65
2021/03/12 08:56:35;;;;;;;23.87;4.07;;;;;;;22.71;36.14;99293.09;4490846;31;34466;-49
2021/03/12 08:59:26;;;;;;;16.42;3.65;;;;;;;22.73;36.16;99290.97;4484438;32;33424;-64
2021/03/12 09:01:57;;;;;;;21.27;4.03;;;;;;;22.74;36.15;99289.91;4483479;32;33858;-65
2021/03/12 09:04:29;;;;;;;15.73;3.75;;;;;;;22.76;36.19;99296.78;4484817;32;34673;-66
2021/03/12 09:07:08;;;;;;;17.87;3.45;;;;;;;22.84;36.23;99290.16;4484641;32;34616;-67
2021/03/12 09:09:37;;;;;;;23.12;3.45;;;;;;;23.00;36.13;99284.06;4484561;32;33282;-66
2021/03/12 09:12:06;;;;;;;15.52;3.78;;;;;;;23.17;36.00;99298.63;4484483;32;34701;-64
2021/03/12 09:14:40;;;;;;;17.35;3.35;;;;;;;23.34;35.82;99290.56;4483638;32;34601;-60
2021/03/12 09:17:07;;;;;;;15.82;3.80;;;;;;;23.54;35.80;99298.34;4484917;32;33787;-65
2021/03/12 09:19:35;;;;;;;24.45;4.05;;;;;;;23.68;35.56;99294.31;4484647;32;33230;-65
2021/03/12 09:22:03;;;;;;;21.80;4.22;;;;;;;23.85;35.33;99299.03;4484328;32;34540;-66
2021/03/12 09:24:34;;;;;;;30.02;5.65;;;;;;;23.99;35.14;99292.22;4484761;32;34706;-65
2021/03/12 09:27:02;;;;;;;28.20;4.25;;;;;;;24.14;34.95;99292.50;4479166;31;33603;-66
2021/03/12 09:29:37;;;;;;;27.60;4.12;;;;;;;24.24;34.84;99294.59;4487390;31;33267;-66
2021/03/12 09:32:05;;;;;;;18.40;4.32;;;;;;;24.38;34.68;99292.44;4484244;32;33953;-62
2021/03/12 09:34:33;;;;;;;23.75;4.55;;;;;;;24.52;34.51;99299.25;4484189;32;34062;-66
2021/03/12 09:37:02;;;;;;;30.23;4.03;;;;;;;24.63;34.36;99298.34;4482995;32;34641;-66
2021/03/12 09:39:30;;;;;;;30.08;4.35;;;;;;;24.78;34.17;99310.59;4484561;32;34608;-63
2021/03/12 09:42:00;;;;;;;22.05;4.07;;;;;;;24.90;34.01;99305.88;4484735;32;34073;-66
2021/03/12 09:44:29;;;;;;;24.92;4.72;;;;;;;25.01;33.84;99304.16;4484733;32;33591;-68
2021/03/12 09:46:58;;;;;;;21.40;4.47;;;;;;;25.13;33.70;99319.41;4484514;32;32374;-69
2021/03/12 09:49:36;;;;;;;23.55;4.45;;;;;;;25.24;33.55;99303.19;4484735;32;34943;-68
2021/03/12 09:52:07;;;;;;;22.02;4.07;;;;;;;25.36;33.38;99323.81;4484538;32;34707;-61
2021/03/12 09:54:35;;;;;;;20.35;4.82;;;;;;;25.45;33.26;99313.31;4470688;32;34561;-58
2021/03/12 09:57:03;;;;;;;20.50;3.70;;;;;;;25.55;33.14;99320.81;4470496;32;33788;-67
2021/03/12 09:59:38;;;;;;;14.98;3.85;;;;;;;25.64;33.00;99320.13;4484452;32;34332;-58
2021/03/12 10:02:20;;;;;;;16.98;3.25;;;;;;;25.73;32.88;99320.50;4483520;32;33607;-69
2021/03/12 10:04:59;;;;;;;15.93;3.92;;;;;;;25.83;32.75;99322.56;4484383;32;33820;-62
2021/03/12 10:07:46;;;;;;;17.27;3.58;;;;;;;25.91;32.64;99328.44;4484374;32;33840;-65
2021/03/12 10:10:25;;;;;;;17.83;3.53;;;;;;;26.01;32.56;99324.16;4483589;32;33333;-61
2021/03/12 10:12:58;;;;;;;14.98;3.10;;;;;;;26.09;32.45;99331.94;4484090;32;34819;-62
2021/03/12 10:15:35;;;;;;;25.12;4.50;;;;;;;26.14;32.31;99338.28;4483408;32;33730;-67
2021/03/12 10:18:04;;;;;;;33.88;4.22;;;;;;;26.19;32.21;99335.59;4482727;32;33763;-53
2021/03/12 10:20:33;;;;;;;29.50;4.18;;;;;;;26.26;32.12;99332.69;4482841;32;33431;-55
2021/03/12 10:23:05;;;;;;;25.95;3.72;;;;;;;26.32;32.08;99339.84;4482891;32;33926;-60
2021/03/12 10:25:47;;;;;;;26.20;4.32;;;;;;;26.37;32.14;99348.13;4475324;32;33519;-62
2021/03/12 10:28:18;;;;;;;;;;;;;;;26.48;32.04;99338.13;4483392;32;33202;-53
2021/03/12 10:30:48;;;;;;;21.17;4.30;;;;;;;26.62;31.85;99352.22;4483782;32;33558;-57
2021/03/12 10:33:18;;;;;;;28.60;4.60;;;;;;;26.61;31.94;99334.97;4483325;32;33790;-52
2021/03/12 10:35:53;;;;;;;26.83;3.80;;;;;;;26.67;32.02;99358.59;4483869;32;34925;-66
2021/03/12 10:38:26;;;;;;;29.63;4.80;;;;;;;26.74;31.99;99344.69;4484097;32;34418;-60
2021/03/12 10:41:15;;;;;;;24.10;3.50;;;;;;;26.83;31.99;99361.47;4484127;32;33084;-50
2021/03/12 10:43:42;;;;;;;24.83;3.95;;;;;;;26.93;31.96;99350.59;4462581;32;33620;-65
2021/03/12 10:46:10;;;;;;;27.20;4.72;;;;;;;26.98;31.92;99361.59;4467114;32;33968;-44
2021/03/12 10:48:45;;;;;;;19.60;3.90;;;;;;;27.05;31.92;99362.22;4480671;32;34506;-57
2021/03/12 10:51:15;;;;;;;20.83;3.87;;;;;;;27.10;31.89;99356.81;4483676;32;33375;-61
2021/03/12 10:53:45;;;;;;;30.50;4.37;;;;;;;27.15;31.77;99356.84;4483590;32;34760;-51
2021/03/12 10:56:12;;;;;;;33.25;3.95;;;;;;;27.15;31.62;99362.31;4483518;32;33823;-60
2021/03/12 10:58:40;;;;;;;27.20;4.62;;;;;;;27.17;31.64;99365.62;4482163;32;33708;-69
2021/03/12 11:01:30;;;;;;;26.10;4.43;;;;;;;27.18;31.61;99359.03;4481221;32;33513;-48
2021/03/12 11:03:59;;;;;;;27.42;4.00;;;;;;;27.18;31.67;99353.56;4483144;32;35182;-59
2021/03/12 11:06:28;;;;;;;26.85;4.12;;;;;;;27.15;31.81;99350.56;4481473;32;33587;-65
2021/03/12 11:08:55;;;;;;;22.98;3.85;;;;;;;27.12;31.88;99354.63;4483191;32;33867;-61
2021/03/12 11:11:22;;;;;;;22.05;3.75;;;;;;;27.11;31.95;99349.41;4483623;32;33356;-66
2021/03/12 11:13:50;;;;;;;21.70;3.85;;;;;;;27.08;32.04;99348.00;4483703;32;33860;-66
2021/03/12 11:16:17;;;;;;;24.92;3.90;;;;;;;27.04;32.10;99346.84;4483177;32;34719;-53
2021/03/12 11:18:45;;;;;;;21.90;3.62;;;;;;;26.99;32.18;99337.78;4483281;32;34967;-61
2021/03/12 11:21:13;;;;;;;20.05;3.30;;;;;;;26.93;32.31;99345.94;4483340;31;34346;-58
2021/03/12 11:23:45;;;;;;;20.08;3.17;;;;;;;26.90;32.35;99342.91;4483223;32;34893;-63
2021/03/12 11:26:13;;;;;;;24.85;3.28;;;;;;;26.85;32.45;99340.13;4482847;32;34799;-67
2021/03/12 11:28:41;;;;;;;17.42;3.15;;;;;;;26.79;32.52;99350.19;4483181;32;33410;-47
2021/03/12 11:31:09;;;;;;;18.58;3.53;;;;;;;26.73;32.63;99350.44;4483129;32;33312;-62
2021/03/12 11:33:37;;;;;;;17.30;3.10;;;;;;;26.67;32.68;99344.91;4483341;32;34215;-67
2021/03/12 11:36:07;;;;;;;18.30;3.78;;;;;;;26.62;32.77;99346.75;4482743;32;33856;-53
2021/03/12 11:38:35;;;;;;;18.45;3.65;;;;;;;26.56;32.84;99353.25;4483186;32;34717;-49
2021/03/12 11:41:02;;;;;;;23.12;3.53;;;;;;;26.51;32.94;99347.75;4483292;32;33278;-66
2021/03/12 11:43:30;;;;;;;15.48;3.30;;;;;;;26.44;33.03;99340.56;4482647;32;34547;-62
2021/03/12 11:45:57;;;;;;;14.70;3.28;;;;;;;26.38;33.10;99340.72;4483013;32;33818;-48
2021/03/12 11:48:24;;;;;;;17.58;2.70;;;;;;;26.34;33.36;99334.94;4482985;32;33773;-66